Time;durP1;ratioP1;P1;durP2;ratioP2;P2;SDS_P1;SDS_P2;PMS_P1;PMS_P2;Temp;Humidity;BMP_temperature;BMP_pressure;BME280_temperature;BME280_humidity;BME280_pressure;Samples;Min_cycle;Max_cycle;Signal;HPM_P1;HPM_P2
2022/07/10 00:00:10;;;;;;;5.77;2.37;;;16.40;8.70;;;;;;5094803;28;20644;-82
2022/07/10 00:02:37;;;;;;;5.63;2.10;;;16.30;11.70;;;;;;5097040;28;20167;-76
2022/07/10 00:05:03;;;;;;;7.67;2.33;;;16.30;11.90;;;;;;5094156;28;20215;-84
2022/07/10 00:07:29;;;;;;;8.00;2.30;;;16.30;13.90;;;;;;5095329;28;20220;-82
2022/07/10 00:09:56;;;;;;;6.73;2.57;;;16.30;13.70;;;;;;5096766;28;20184;-78
2022/07/10 00:12:22;;;;;;;6.73;2.33;;;16.30;12.90;;;;;;5106677;28;20187;-77
2022/07/10 00:15:04;;;;;;;4.10;1.80;;;16.20;13.70;;;;;;5100502;28;20178;-84
2022/07/10 00:17:33;;;;;;;5.43;2.30;;;16.20;13.60;;;;;;5095274;28;20222;-82
2022/07/10 00:19:59;;;;;;;4.43;2.20;;;16.20;14.90;;;;;;5094779;28;20179;-82
2022/07/10 00:22:25;;;;;;;7.13;2.70;;;16.20;14.10;;;;;;5094143;28;20224;-77
2022/07/10 00:24:51;;;;;;;6.37;2.70;;;16.20;16.90;;;;;;5095307;28;20654;-78
2022/07/10 00:27:18;;;;;;;4.73;2.43;;;16.20;14.90;;;;;;5097347;28;20189;-78
2022/07/10 00:29:44;;;;;;;5.53;2.13;;;16.30;12.40;;;;;;5099165;28;20168;-79
2022/07/10 00:32:10;;;;;;;6.70;2.80;;;16.20;10.80;;;;;;5106225;28;20171;-76
2022/07/10 00:34:36;;;;;;;7.13;2.97;;;16.10;16.50;;;;;;5107441;28;20171;-75
2022/07/10 00:37:02;;;;;;;5.43;2.40;;;16.00;16.40;;;;;;5108455;28;20191;-77
2022/07/10 00:39:29;;;;;;;5.83;2.77;;;16.00;18.20;;;;;;5110558;28;20197;-80
2022/07/10 00:42:09;;;;;;;6.97;2.43;;;16.00;17.40;;;;;;5111680;28;20156;-83
2022/07/10 00:44:36;;;;;;;6.60;2.27;;;15.90;17.90;;;;;;5104750;28;20174;-80
2022/07/10 00:47:09;;;;;;;4.40;1.93;;;15.90;19.50;;;;;;5111324;28;20150;-75
2022/07/10 00:49:40;;;;;;;5.80;2.10;;;15.80;20.10;;;;;;5111448;28;20651;-78
2022/07/10 00:52:14;;;;;;;3.87;1.97;;;15.90;19.80;;;;;;5101017;28;20275;-79
2022/07/10 00:54:46;;;;;;;5.53;2.07;;;15.90;18.90;;;;;;5096173;28;20162;-84
2022/07/10 00:57:16;;;;;;;5.57;2.50;;;16.00;17.10;;;;;;5095316;28;20188;-83
2022/07/10 00:59:43;;;;;;;5.17;2.10;;;15.90;18.70;;;;;;5095588;28;20187;-81
2022/07/10 01:02:10;;;;;;;5.80;2.47;;;16.00;20.20;;;;;;5094793;28;20559;-80
2022/07/10 01:04:35;;;;;;;6.03;2.10;;;16.00;18.50;;;;;;5097028;28;20168;-77
2022/07/10 01:07:01;;;;;;;4.97;2.23;;;16.00;17.30;;;;;;5110814;28;20191;-81
2022/07/10 01:09:29;;;;;;;4.80;2.53;;;16.10;20.20;;;;;;5110305;28;20171;-83
2022/07/10 01:11:56;;;;;;;4.73;2.00;;;16.00;17.80;;;;;;5107969;28;20167;-78
2022/07/10 01:14:30;;;;;;;5.27;2.40;;;16.00;16.90;;;;;;5100961;28;20160;-81
2022/07/10 01:16:59;;;;;;;3.67;2.20;;;15.90;17.80;;;;;;5098656;28;20604;-79
2022/07/10 01:19:24;;;;;;;4.97;2.13;;;15.80;21.10;;;;;;5102337;28;20159;-77
2022/07/10 01:21:50;;;;;;;6.30;2.10;;;15.70;21.60;;;;;;5113362;28;20159;-77
2022/07/10 01:24:16;;;;;;;6.53;2.37;;;15.70;22.60;;;;;;5113135;28;20167;-78
2022/07/10 01:26:42;;;;;;;5.97;2.23;;;15.70;22.50;;;;;;5102617;28;20168;-83
2022/07/10 01:29:09;;;;;;;5.57;2.20;;;15.70;22.80;;;;;;5099541;28;20172;-83
2022/07/10 01:31:36;;;;;;;6.77;2.77;;;15.80;23.00;;;;;;5099000;28;20191;-76
2022/07/10 01:34:05;;;;;;;6.07;2.70;;;15.80;21.90;;;;;;5098986;28;20168;-84
2022/07/10 01:36:32;;;;;;;7.00;2.20;;;15.80;21.10;;;;;;5096944;28;20346;-82
2022/07/10 01:38:59;;;;;;;4.43;2.17;;;15.70;21.00;;;;;;5098123;28;20312;-82
2022/07/10 01:41:25;;;;;;;9.07;2.53;;;15.70;20.90;;;;;;5097896;28;20176;-84
2022/07/10 01:43:51;;;;;;;6.40;2.27;;;15.70;22.10;;;;;;5098186;28;20199;-82
2022/07/10 01:46:18;;;;;;;6.67;2.67;;;15.70;23.40;;;;;;5099461;28;20521;-84
2022/07/10 01:48:45;;;;;;;7.67;2.50;;;15.70;24.40;;;;;;5098058;28;20171;-82
2022/07/10 01:51:11;;;;;;;7.47;2.37;;;15.70;24.30;;;;;;5097944;28;20183;-80
2022/07/10 01:53:38;;;;;;;6.03;2.33;;;15.80;24.40;;;;;;5115267;28;20190;-73
2022/07/10 01:56:08;;;;;;;5.13;2.07;;;15.80;21.40;;;;;;5106363;28;20649;-77
2022/07/10 01:58:35;;;;;;;8.13;2.10;;;15.70;22.30;;;;;;5098146;28;20219;-83
2022/07/10 02:01:01;;;;;;;6.83;2.20;;;15.70;21.90;;;;;;5098061;28;20167;-82
2022/07/10 02:06:11;;;;;;;5.97;2.10;;;15.80;21.50;;;;;;5103420;28;20228;-82
2022/07/10 02:08:38;;;;;;;6.10;1.83;;;15.60;22.00;;;;;;5105571;28;20217;-80
2022/07/10 02:11:04;;;;;;;6.63;1.90;;;15.70;21.30;;;;;;5112171;28;20172;-76
2022/07/10 02:13:30;;;;;;;5.10;2.30;;;15.60;22.70;;;;;;5118186;28;20174;-81
2022/07/10 02:15:56;;;;;;;5.47;2.30;;;15.60;24.70;;;;;;5120431;28;20210;-78
2022/07/10 02:18:22;;;;;;;4.63;1.87;;;15.70;24.10;;;;;;5119485;28;20218;-73
2022/07/10 02:20:48;;;;;;;5.00;1.73;;;15.60;23.00;;;;;;5118732;28;20164;-75
2022/07/10 02:23:15;;;;;;;5.10;1.87;;;15.60;23.00;;;;;;5115484;28;20223;-76
2022/07/10 02:25:41;;;;;;;5.13;2.40;;;15.60;23.50;;;;;;5116024;28;20151;-76
2022/07/10 02:28:09;;;;;;;3.97;1.80;;;15.60;22.20;;;;;;5115890;28;20613;-78
2022/07/10 02:30:35;;;;;;;5.37;2.00;;;15.60;21.20;;;;;;5114266;28;20151;-79
2022/07/10 02:33:01;;;;;;;7.23;2.10;;;15.60;20.30;;;;;;5111679;28;20254;-76
2022/07/10 02:35:26;;;;;;;6.47;2.40;;;15.50;20.10;;;;;;5110224;28;20175;-76
2022/07/10 02:37:52;;;;;;;4.17;2.00;;;15.50;21.50;;;;;;5110065;28;20245;-75
2022/07/10 02:40:18;;;;;;;5.90;2.43;;;15.60;20.60;;;;;;5117557;28;20183;-77
2022/07/10 02:42:47;;;;;;;5.57;2.10;;;15.70;21.90;;;;;;5107632;28;20160;-81
2022/07/10 02:45:15;;;;;;;6.43;2.20;;;15.80;20.90;;;;;;5103819;28;20182;-78
2022/07/10 02:47:44;;;;;;;4.23;2.00;;;15.80;20.30;;;;;;5097812;28;20692;-78
2022/07/10 02:50:13;;;;;;;6.60;2.00;;;15.70;20.00;;;;;;5097631;28;20565;-75
2022/07/10 02:52:42;;;;;;;8.50;2.00;;;15.60;22.40;;;;;;5097824;28;20160;-77
2022/07/10 02:55:08;;;;;;;4.00;2.00;;;15.60;22.90;;;;;;5097271;28;20155;-84
2022/07/10 02:57:34;;;;;;;7.57;1.97;;;15.70;19.80;;;;;;5097384;28;20191;-79
2022/07/10 02:59:59;;;;;;;3.40;2.07;;;15.70;21.10;;;;;;5101699;28;20186;-76
2022/07/10 03:02:26;;;;;;;5.80;2.20;;;15.80;19.50;;;;;;5119294;28;20185;-78
2022/07/10 03:04:52;;;;;;;5.57;2.20;;;15.60;21.20;;;;;;5112276;28;20188;-80
2022/07/10 03:07:17;;;;;;;5.33;2.47;;;15.60;23.90;;;;;;5105397;28;20171;-78
2022/07/10 03:09:49;;;;;;;8.67;2.40;;;15.40;26.90;;;;;;5099133;28;20167;-82
2022/07/10 03:12:18;;;;;;;7.27;2.77;;;15.40;28.80;;;;;;5096307;28;20167;-76
2022/07/10 03:14:43;;;;;;;7.37;2.20;;;15.50;27.50;;;;;;5096326;28;20627;-82
2022/07/10 03:17:09;;;;;;;7.57;2.50;;;15.50;26.80;;;;;;5095710;28;20355;-80
2022/07/10 03:19:34;;;;;;;4.60;2.40;;;15.40;29.30;;;;;;5095709;28;20608;-77
2022/07/10 03:22:00;;;;;;;5.57;2.20;;;15.40;30.00;;;;;;5098159;28;20530;-81
2022/07/10 03:24:26;;;;;;;4.33;2.10;;;15.50;30.70;;;;;;5099744;28;20225;-85
2022/07/10 03:26:51;;;;;;;6.97;2.33;;;15.50;27.30;;;;;;5117349;28;20156;-80
2022/07/10 03:29:20;;;;;;;4.03;2.13;;;15.60;26.70;;;;;;5107386;28;20654;-79
2022/07/10 03:31:48;;;;;;;5.37;2.27;;;15.50;28.30;;;;;;5097590;28;20160;-84
2022/07/10 03:34:13;;;;;;;6.13;2.20;;;15.60;27.50;;;;;;5116414;28;20168;-83
2022/07/10 03:36:39;;;;;;;5.37;2.23;;;15.70;25.10;;;;;;5106063;28;20190;-79
2022/07/10 03:39:06;;;;;;;5.23;2.10;;;15.60;24.50;;;;;;5094664;28;20191;-77
2022/07/10 03:41:32;;;;;;;5.07;2.53;;;15.40;28.60;;;;;;5094636;28;20180;-81
2022/07/10 03:43:57;;;;;;;4.23;2.10;;;15.30;33.50;;;;;;5109824;28;20207;-76
2022/07/10 03:46:23;;;;;;;5.33;2.07;;;15.50;30.30;;;;;;5116557;28;20163;-81
2022/07/10 03:48:48;;;;;;;5.77;2.33;;;15.60;29.10;;;;;;5098182;28;20679;-77
2022/07/10 03:51:14;;;;;;;5.33;2.50;;;15.60;26.00;;;;;;5097956;28;20519;-82
2022/07/10 03:53:51;;;;;;;8.00;2.40;;;15.60;26.00;;;;;;5095634;28;20646;-78
2022/07/10 03:59:01;;;;;;;4.40;2.03;;;15.70;27.20;;;;;;5095187;28;20218;-83
2022/07/10 04:01:26;;;;;;;8.83;2.77;;;15.60;26.70;;;;;;5094119;28;20171;-84
2022/07/10 04:03:52;;;;;;;4.97;2.50;;;15.60;28.00;;;;;;5094802;28;20517;-79
2022/07/10 04:06:18;;;;;;;6.07;2.27;;;15.80;25.50;;;;;;5092835;28;20654;-77
2022/07/10 04:08:43;;;;;;;7.07;2.53;;;15.90;24.20;;;;;;5092272;28;20536;-76
2022/07/10 04:11:09;;;;;;;6.30;3.07;;;15.90;23.50;;;;;;5091761;28;20265;-77
2022/07/10 04:13:35;;;;;;;4.70;2.60;;;15.80;24.90;;;;;;5094854;28;20168;-80
2022/07/10 04:16:03;;;;;;;6.00;2.90;;;15.90;25.10;;;;;;5108529;28;20164;-79
2022/07/10 04:18:28;;;;;;;5.67;3.13;;;15.90;26.00;;;;;;5108926;28;20183;-76
2022/07/10 04:20:54;;;;;;;6.20;3.00;;;16.00;25.20;;;;;;5110280;28;20209;-77
2022/07/10 04:23:23;;;;;;;7.30;3.03;;;16.10;24.70;;;;;;5102391;28;20179;-76
2022/07/10 04:25:51;;;;;;;5.90;3.10;;;16.20;23.70;;;;;;5097503;28;20148;-84
2022/07/10 04:28:18;;;;;;;5.53;3.10;;;16.20;20.40;;;;;;5095589;28;20163;-83
2022/07/10 04:30:47;;;;;;;8.07;2.93;;;16.20;21.60;;;;;;5092625;28;20516;-84
2022/07/10 04:33:12;;;;;;;8.43;2.57;;;16.00;23.90;;;;;;5094278;28;20578;-84
2022/07/10 04:35:38;;;;;;;6.03;3.27;;;16.00;24.30;;;;;;5094576;28;20178;-81
2022/07/10 04:38:04;;;;;;;5.70;3.10;;;16.10;23.20;;;;;;5093576;28;20220;-84
2022/07/10 04:40:29;;;;;;;7.33;3.00;;;16.10;22.80;;;;;;5093762;28;20305;-77
2022/07/10 04:42:55;;;;;;;9.20;3.17;;;16.20;21.60;;;;;;5094616;28;20179;-83
2022/07/10 04:45:21;;;;;;;6.83;2.53;;;16.30;18.70;;;;;;5094424;28;20250;-82
2022/07/10 04:47:46;;;;;;;6.40;2.57;;;16.30;14.60;;;;;;5094299;28;20173;-80
2022/07/10 04:50:12;;;;;;;7.83;2.80;;;16.40;11.00;;;;;;5094938;28;20654;-80
2022/07/10 04:52:38;;;;;;;4.67;2.60;;;16.60;8.80;;;;;;5095180;28;20631;-83
2022/07/10 04:55:04;;;;;;;5.27;2.93;;;16.50;11.10;;;;;;5094982;28;20690;-82
2022/07/10 04:57:30;;;;;;;6.87;2.73;;;16.70;8.80;;;;;;5094022;28;20280;-80
2022/07/10 04:59:56;;;;;;;6.03;2.83;;;16.80;5.20;;;;;;5094319;28;20664;-83
2022/07/10 05:02:22;;;;;;;5.33;2.70;;;16.80;4.80;;;;;;5093757;28;20233;-76
2022/07/10 05:04:48;;;;;;;5.67;2.93;;;17.00;2.80;;;;;;5094926;28;20254;-77
2022/07/10 05:07:14;;;;;;;6.47;2.80;;;17.00;1.00;;;;;;5095623;28;20195;-86
2022/07/10 05:09:40;;;;;;;6.13;2.60;;;16.90;1.00;;;;;;5094390;28;20624;-77
2022/07/10 05:12:06;;;;;;;5.40;2.57;;;16.90;1.30;;;;;;5105951;28;20165;-75
2022/07/10 05:14:32;;;;;;;6.57;3.00;;;16.90;1.00;;;;;;5112110;28;20168;-78
2022/07/10 05:17:04;;;;;;;5.27;2.50;;;17.10;1.00;;;;;;5097980;28;20221;-78
2022/07/10 05:19:30;;;;;;;4.77;2.87;;;17.10;1.00;;;;;;5094668;28;20251;-76
2022/07/10 05:21:57;;;;;;;4.47;2.30;;;17.10;1.00;;;;;;5094593;28;20255;-80
2022/07/10 05:24:22;;;;;;;4.60;2.70;;;17.10;1.00;;;;;;5094089;28;20164;-83
2022/07/10 05:26:49;;;;;;;4.83;2.63;;;17.20;1.00;;;;;;5094035;28;20625;-77
2022/07/10 05:29:15;;;;;;;4.80;2.00;;;17.10;1.00;;;;;;5094460;28;20176;-81
2022/07/10 05:31:40;;;;;;;7.20;2.40;;;17.00;1.00;;;;;;5093630;28;20229;-78
2022/07/10 05:34:06;;;;;;;5.20;1.97;;;16.90;1.00;;;;;;5096151;28;20707;-82
2022/07/10 05:36:31;;;;;;;8.30;2.27;;;16.80;1.40;;;;;;5096997;28;20639;-81
2022/07/10 05:38:57;;;;;;;8.47;2.43;;;16.60;8.80;;;;;;5096944;28;20219;-84
2022/07/10 05:41:23;;;;;;;4.50;1.97;;;16.70;10.60;;;;;;5103602;28;20219;-76
2022/07/10 05:43:48;;;;;;;6.37;2.07;;;16.60;12.10;;;;;;5108849;28;20171;-77
2022/07/10 05:46:14;;;;;;;6.00;2.67;;;16.80;12.00;;;;;;5104616;28;20174;-77
2022/07/10 05:48:40;;;;;;;4.17;2.10;;;16.90;8.90;;;;;;5117191;28;20214;-74
2022/07/10 05:51:06;;;;;;;4.67;2.00;;;17.00;7.60;;;;;;5113874;28;20147;-79
2022/07/10 05:53:37;;;;;;;5.17;1.83;;;16.90;11.70;;;;;;5105628;28;20183;-76
2022/07/10 05:56:09;;;;;;;5.80;1.93;;;17.00;10.30;;;;;;5096855;28;20181;-84
2022/07/10 05:58:42;;;;;;;7.67;2.33;;;17.00;10.00;;;;;;5104737;28;20207;-76
2022/07/10 06:01:08;;;;;;;5.33;2.13;;;17.00;11.40;;;;;;5119599;28;20189;-78
2022/07/10 06:03:35;;;;;;;4.93;1.63;;;16.90;14.50;;;;;;5104384;28;20164;-82
2022/07/10 06:06:04;;;;;;;8.37;2.23;;;16.90;16.30;;;;;;5099675;28;20188;-83
2022/07/10 06:08:29;;;;;;;6.13;2.00;;;16.90;17.30;;;;;;5107591;28;20176;-77
2022/07/10 06:10:55;;;;;;;3.33;1.50;;;16.90;18.30;;;;;;5120678;28;20176;-76
2022/07/10 06:13:21;;;;;;;4.63;1.70;;;16.80;20.10;;;;;;5112908;28;20264;-77
2022/07/10 06:15:47;;;;;;;5.63;1.83;;;16.70;23.10;;;;;;5106529;28;20715;-82
2022/07/10 06:18:12;;;;;;;4.47;1.87;;;16.60;25.50;;;;;;5115114;28;20196;-77
2022/07/10 06:20:38;;;;;;;4.90;2.27;;;16.50;26.90;;;;;;5110440;28;20229;-81
2022/07/10 06:23:05;;;;;;;5.73;1.77;;;16.60;27.90;;;;;;5100176;28;20651;-78
2022/07/10 06:25:34;;;;;;;7.23;2.30;;;16.80;26.10;;;;;;5098441;28;20163;-80
2022/07/10 06:27:59;;;;;;;4.70;1.70;;;16.80;23.20;;;;;;5097915;28;20171;-76
2022/07/10 06:30:25;;;;;;;5.07;1.70;;;17.00;21.60;;;;;;5097710;28;20530;-75
2022/07/10 06:32:51;;;;;;;5.87;1.90;;;16.90;21.50;;;;;;5097124;28;20632;-77
2022/07/10 06:35:16;;;;;;;5.27;1.57;;;16.90;22.70;;;;;;5097734;28;20172;-76
2022/07/10 06:37:42;;;;;;;6.17;1.80;;;17.20;19.60;;;;;;5095929;28;20574;-83
2022/07/10 06:40:14;;;;;;;3.23;1.60;;;17.20;19.30;;;;;;5096311;28;20277;-84
2022/07/10 06:42:40;;;;;;;6.70;2.13;;;17.20;19.80;;;;;;5097503;28;20179;-77
2022/07/10 06:45:06;;;;;;;5.43;1.97;;;17.50;13.80;;;;;;5100621;28;20534;-82
2022/07/10 06:50:17;;;;;;;5.20;2.10;;;17.60;9.70;;;;;;5115090;28;20184;-78
2022/07/10 06:52:45;;;;;;;3.77;1.93;;;17.80;5.60;;;;;;5104326;28;20165;-76
2022/07/10 06:55:13;;;;;;;6.83;1.90;;;17.80;4.10;;;;;;5096649;28;20174;-78
2022/07/10 06:57:39;;;;;;;5.97;1.90;;;17.70;6.90;;;;;;5097296;28;20198;-76
2022/07/10 07:00:06;;;;;;;3.53;1.73;;;17.70;7.60;;;;;;5095706;28;20305;-76
2022/07/10 07:02:32;;;;;;;6.37;2.20;;;17.60;7.20;;;;;;5097099;28;20204;-80
2022/07/10 07:04:57;;;;;;;4.87;2.13;;;17.60;13.50;;;;;;5094808;28;20168;-77
2022/07/10 07:07:23;;;;;;;7.33;2.23;;;17.60;15.20;;;;;;5096306;28;20164;-76
2022/07/10 07:09:50;;;;;;;4.23;1.90;;;17.40;17.20;;;;;;5096927;28;20195;-82
2022/07/10 07:12:17;;;;;;;7.20;1.53;;;17.20;21.40;;;;;;5095696;28;20167;-83
2022/07/10 07:14:43;;;;;;;6.07;2.40;;;17.10;22.80;;;;;;5096396;28;20171;-82
2022/07/10 07:17:11;;;;;;;6.13;1.90;;;17.20;23.40;;;;;;5096750;28;20197;-78
2022/07/10 07:25:09;;;;;;;6.07;2.10;;;17.30;20.40;;;;;;5084597;28;20190;-83
2022/07/10 07:27:36;;;;;;;5.40;1.97;;;17.30;22.50;;;;;;5100780;28;20225;-78
2022/07/10 07:30:14;;;;;;;6.17;2.10;;;17.30;21.80;;;;;;5101805;28;20222;-83
2022/07/10 07:32:42;;;;;;;4.97;1.80;;;17.50;19.50;;;;;;5100352;28;20170;-77
2022/07/10 07:35:09;;;;;;;6.90;1.90;;;17.50;18.30;;;;;;5100494;28;20199;-81
2022/07/10 07:37:40;;;;;;;6.50;2.07;;;17.40;23.40;;;;;;5096727;28;20190;-80
2022/07/10 07:40:08;;;;;;;10.23;4.53;;;17.50;19.60;;;;;;5096229;28;20650;-84
2022/07/10 07:42:34;;;;;;;4.83;2.07;;;17.50;14.60;;;;;;5095933;28;20204;-83
2022/07/10 07:45:00;;;;;;;5.30;1.90;;;17.50;17.50;;;;;;5103560;28;20650;-76
2022/07/10 07:47:26;;;;;;;4.90;1.83;;;17.50;13.30;;;;;;5110019;28;20178;-77
2022/07/10 07:49:51;;;;;;;4.33;1.80;;;17.70;12.40;;;;;;5109365;28;20148;-76
2022/07/10 07:52:17;;;;;;;3.80;1.60;;;17.90;7.30;;;;;;5111412;28;20174;-80
2022/07/10 07:54:45;;;;;;;4.10;1.60;;;18.10;1.00;;;;;;5109175;28;20184;-81
2022/07/10 07:57:18;;;;;;;4.47;1.83;;;18.10;1.00;;;;;;5104741;28;20202;-76
2022/07/10 07:59:44;;;;;;;7.83;1.93;;;18.30;1.00;;;;;;5105623;28;20240;-79
2022/07/10 08:02:10;;;;;;;6.17;1.87;;;18.30;1.00;;;;;;5097612;28;20254;-79
2022/07/10 08:04:36;;;;;;;6.07;2.20;;;18.50;8.50;;;;;;5078107;28;20229;-80
2022/07/10 08:07:02;;;;;;;5.27;1.57;;;18.50;1.00;;;;;;5091329;28;20509;-77
2022/07/10 08:09:28;;;;;;;7.57;2.20;;;18.60;1.00;;;;;;5087157;28;20178;-76
2022/07/10 08:11:53;;;;;;;4.13;1.83;;;18.90;1.00;;;;;;5096647;28;20637;-84
2022/07/10 08:14:19;;;;;;;5.47;2.07;;;18.70;1.00;;;;;;5099240;28;20642;-79
2022/07/10 08:16:45;;;;;;;5.10;1.63;;;18.50;1.00;;;;;;5095158;28;20655;-87
2022/07/10 08:19:10;;;;;;;6.70;2.43;;;18.70;1.00;;;;;;5096212;28;20180;-82
2022/07/10 08:21:36;;;;;;;4.23;1.70;;;18.80;1.00;;;;;;5096263;28;20672;-85
2022/07/10 08:24:03;;;;;;;5.30;2.03;;;18.70;1.00;;;;;;5082535;28;20658;-85
2022/07/10 08:26:29;;;;;;;3.37;1.60;;;18.40;1.00;;;;;;5108072;28;20167;-79
2022/07/10 08:28:54;;;;;;;4.47;1.50;;;18.50;1.00;;;;;;5114574;28;20211;-79
2022/07/10 08:31:20;;;;;;;6.53;1.80;;;18.60;1.00;;;;;;5102481;28;20619;-78
2022/07/10 08:33:46;;;;;;;5.30;2.20;;;18.70;1.00;;;;;;5100558;28;20167;-85
2022/07/10 08:36:12;;;;;;;6.10;1.90;;;18.80;1.00;;;;;;5112191;28;20159;-81
2022/07/10 08:38:37;;;;;;;6.97;2.27;;;18.70;1.00;;;;;;5116146;28;20219;-77
2022/07/10 08:41:05;;;;;;;3.87;1.60;;;18.80;1.00;;;;;;5110845;28;20250;-82
2022/07/10 08:43:32;;;;;;;6.17;2.10;;;18.60;1.00;;;;;;5086742;28;20177;-81
2022/07/10 08:45:59;;;;;;;4.37;1.90;;;18.50;1.00;;;;;;5078942;28;20203;-84
2022/07/10 08:48:26;;;;;;;6.87;1.83;;;18.70;1.00;;;;;;5079849;28;20226;-77
2022/07/10 08:50:54;;;;;;;5.10;1.90;;;18.80;1.00;;;;;;5079648;28;20358;-80
2022/07/10 08:53:30;;;;;;;4.67;2.50;;;19.00;1.00;;;;;;5098211;28;20175;-84
2022/07/10 08:55:58;;;;;;;4.40;2.07;;;19.00;1.00;;;;;;5111077;28;20246;-78
2022/07/10 08:58:35;;;;;;;5.47;2.00;;;19.10;1.00;;;;;;5116844;28;20234;-84
2022/07/10 09:01:01;;;;;;;7.40;2.30;;;19.20;1.00;;;;;;5100387;28;20187;-84
2022/07/10 09:03:44;;;;;;;2.80;1.60;;;19.30;1.00;;;;;;5094750;28;20173;-80
2022/07/10 09:06:11;;;;;;;5.83;1.70;;;19.20;1.00;;;;;;5094487;28;20201;-77
2022/07/10 09:08:37;;;;;;;4.13;1.70;;;19.20;1.00;;;;;;5106152;28;20170;-77
2022/07/10 09:11:28;;;;;;;4.73;1.87;;;19.20;1.00;;;;;;5099422;28;20151;-81
2022/07/10 09:14:07;;;;;;;5.93;2.23;;;19.50;1.00;;;;;;5098245;28;20166;-85
2022/07/10 09:16:35;;;;;;;5.20;1.60;;;19.70;1.00;;;;;;5099852;28;20176;-83
2022/07/10 09:19:23;;;;;;;4.83;1.70;;;19.30;1.00;;;;;;5096179;28;20268;-76
2022/07/10 09:21:51;;;;;;;4.87;1.90;;;19.30;1.00;;;;;;5092688;28;20646;-88
2022/07/10 09:24:19;;;;;;;5.30;1.87;;;19.40;1.00;;;;;;5090200;28;20226;-79
2022/07/10 09:27:07;;;;;;;3.27;1.73;;;19.80;1.00;;;;;;5092927;28;20205;-81
2022/07/10 09:29:50;;;;;;;6.90;2.07;;;20.10;1.00;;;;;;5092771;28;20171;-78
2022/07/10 09:32:18;;;;;;;3.43;1.70;;;19.80;1.00;;;;;;5104300;28;20194;-78
2022/07/10 09:37:59;;;;;;;3.50;1.67;;;20.20;1.00;;;;;;5102513;28;20214;-86
2022/07/10 09:40:30;;;;;;;4.50;2.00;;;20.30;1.00;;;;;;5085621;28;20211;-85
2022/07/10 09:43:02;;;;;;;2.70;1.83;;;20.50;1.00;;;;;;5100558;28;20484;-78
2022/07/10 09:45:28;;;;;;;3.60;1.67;;;20.40;1.00;;;;;;5091375;28;20176;-82
2022/07/10 09:48:04;;;;;;;4.90;2.33;;;20.20;1.00;;;;;;5088647;28;20228;-79
2022/07/10 09:50:36;;;;;;;5.83;2.47;;;20.20;1.00;;;;;;5085033;28;20177;-78
2022/07/10 09:53:04;;;;;;;6.67;2.00;;;20.20;1.00;;;;;;5086168;28;20172;-78
2022/07/10 09:55:34;;;;;;;4.60;2.10;;;20.20;1.00;;;;;;5085585;28;20179;-76
2022/07/10 09:58:01;;;;;;;4.90;1.90;;;20.40;1.00;;;;;;5089779;28;20298;-83
2022/07/10 10:00:30;;;;;;;4.83;2.17;;;20.30;1.00;;;;;;5086085;28;20217;-82
2022/07/10 10:03:00;;;;;;;7.23;2.30;;;20.30;1.00;;;;;;5089849;28;20175;-82
2022/07/10 10:05:53;;;;;;;5.33;2.47;;;20.50;1.00;;;;;;5083045;28;20173;-83
2022/07/10 10:08:27;;;;;;;7.63;2.83;;;20.70;1.00;;;;;;5093375;28;20168;-79
2022/07/10 10:10:55;;;;;;;4.67;2.10;;;20.90;1.00;;;;;;5090764;28;20174;-78
2022/07/10 10:13:24;;;;;;;5.53;2.50;;;20.90;1.00;;;;;;5095100;28;20185;-79
2022/07/10 10:15:51;;;;;;;6.13;2.27;;;20.90;1.00;;;;;;5090397;28;20628;-78
2022/07/10 10:18:25;;;;;;;5.90;2.47;;;20.90;1.00;;;;;;5087544;28;21085;-78
2022/07/10 10:20:53;;;;;;;3.90;2.13;;;21.10;1.00;;;;;;5093592;28;20191;-77
2022/07/10 10:23:21;;;;;;;4.43;2.10;;;21.30;1.00;;;;;;5094355;28;20240;-77
2022/07/10 10:25:52;;;;;;;4.57;2.20;;;21.20;1.00;;;;;;5095944;28;20183;-78
2022/07/10 10:28:23;;;;;;;4.87;2.63;;;21.30;1.00;;;;;;5086405;28;20188;-83
2022/07/10 10:30:53;;;;;;;5.13;2.47;;;21.10;1.00;;;;;;5079044;28;20177;-77
2022/07/10 10:33:48;;;;;;;4.47;2.50;;;21.00;1.00;;;;;;5090478;28;20218;-78
2022/07/10 10:36:35;;;;;;;3.97;2.30;;;21.30;1.00;;;;;;5085826;28;20233;-84
2022/07/10 10:39:18;;;;;;;3.77;2.40;;;21.20;1.00;;;;;;5078565;28;20266;-77
2022/07/10 10:41:52;;;;;;;6.07;2.47;;;21.30;1.00;;;;;;5080628;28;20238;-76
2022/07/10 10:44:18;;;;;;;6.10;3.17;;;21.10;1.00;;;;;;5076409;28;20192;-77
2022/07/10 10:47:01;;;;;;;4.80;2.30;;;20.90;1.00;;;;;;5087107;28;20165;-76
2022/07/10 10:49:47;;;;;;;3.83;2.60;;;20.90;1.00;;;;;;5089567;28;20170;-84
2022/07/10 10:52:15;;;;;;;4.47;2.57;;;21.30;1.00;;;;;;5083593;28;20838;-82
2022/07/10 10:55:01;;;;;;;3.60;2.13;;;21.40;1.00;;;;;;5091080;28;20506;-77
2022/07/10 10:57:32;;;;;;;5.37;2.73;;;21.70;1.00;;;;;;5084732;28;20187;-84
2022/07/10 11:00:00;;;;;;;4.60;2.23;;;21.60;1.00;;;;;;5083386;28;20614;-82
2022/07/10 11:02:30;;;;;;;4.93;2.70;;;21.40;1.00;;;;;;5080526;28;20165;-77
2022/07/10 11:05:24;;;;;;;4.23;2.23;;;21.40;1.00;;;;;;5085611;28;20199;-80
2022/07/10 11:07:54;;;;;;;5.33;2.50;;;21.10;1.00;;;;;;5072391;28;20179;-78
2022/07/10 11:10:44;;;;;;;5.40;2.67;;;21.00;1.00;;;;;;5072530;28;20261;-79
2022/07/10 11:13:19;;;;;;;5.23;2.40;;;20.90;1.00;;;;;;5083456;28;20672;-85
2022/07/10 11:15:46;;;;;;;4.20;2.63;;;21.00;1.00;;;;;;5077533;28;20191;-83
2022/07/10 11:18:14;;;;;;;3.70;2.23;;;21.10;1.00;;;;;;5085022;28;20557;-82
2022/07/10 11:20:51;;;;;;;4.60;2.40;;;21.30;1.00;;;;;;5083720;28;20194;-81
2022/07/10 11:23:47;;;;;;;4.33;2.40;;;21.20;1.00;;;;;;5098658;28;20274;-79
2022/07/10 11:26:40;;;;;;;5.27;2.60;;;21.10;1.00;;;;;;5100238;28;20171;-79
2022/07/10 11:29:06;;;;;;;4.23;2.30;;;21.10;1.00;;;;;;5082363;28;20170;-77
2022/07/10 11:31:44;;;;;;;4.03;2.10;;;21.20;1.00;;;;;;5081798;28;20233;-79
2022/07/10 11:34:10;;;;;;;3.13;2.03;;;21.30;1.00;;;;;;5093634;28;20651;-79
2022/07/10 11:36:39;;;;;;;4.17;2.20;;;21.50;1.00;;;;;;5085696;28;20207;-80
2022/07/10 11:39:07;;;;;;;4.43;2.17;;;21.70;1.00;;;;;;5089820;28;20217;-85
2022/07/10 11:41:33;;;;;;;5.53;2.40;;;21.90;1.00;;;;;;5098975;28;20160;-77
2022/07/10 11:44:01;;;;;;;2.87;2.07;;;22.10;1.00;;;;;;5107274;28;20226;-79
2022/07/10 11:46:30;;;;;;;4.03;2.10;;;22.20;1.00;;;;;;5102904;28;20175;-79
2022/07/10 11:48:59;;;;;;;3.63;2.10;;;22.30;1.00;;;;;;5101844;28;20211;-77
2022/07/10 11:51:31;;;;;;;4.47;2.30;;;22.10;1.00;;;;;;5089296;28;20221;-74
2022/07/10 11:54:04;;;;;;;3.47;1.80;;;22.20;1.00;;;;;;5089946;28;20173;-76
2022/07/10 11:56:35;;;;;;;4.67;2.23;;;22.30;1.00;;;;;;5090733;28;20180;-78
2022/07/10 11:59:06;;;;;;;3.63;1.80;;;22.10;1.00;;;;;;5096488;28;20295;-77
2022/07/10 12:01:34;;;;;;;4.67;1.80;;;22.10;1.00;;;;;;5085019;28;20182;-79
2022/07/10 12:04:08;;;;;;;3.37;1.90;;;22.40;1.00;;;;;;5085043;28;20185;-77
2022/07/10 12:06:36;;;;;;;7.17;2.00;;;22.60;1.00;;;;;;5085906;28;20195;-78
2022/07/10 12:09:07;;;;;;;3.40;2.10;;;22.60;1.00;;;;;;5083476;28;20260;-77
2022/07/10 12:11:34;;;;;;;2.60;1.70;;;22.80;1.00;;;;;;5080800;28;20216;-76
2022/07/10 12:14:19;;;;;;;2.87;1.57;;;22.80;1.00;;;;;;5078833;28;20315;-78
2022/07/10 12:16:53;;;;;;;4.33;1.70;;;22.60;1.00;;;;;;5070714;28;20193;-78
2022/07/10 12:19:25;;;;;;;5.13;1.67;;;22.50;1.00;;;;;;5090410;28;20201;-79
2022/07/10 12:21:52;;;;;;;6.87;2.03;;;22.60;1.00;;;;;;5081256;28;20185;-78
2022/07/10 12:24:20;;;;;;;3.57;1.77;;;22.70;1.00;;;;;;5088391;28;20315;-78
2022/07/10 12:26:46;;;;;;;2.80;1.70;;;22.50;1.00;;;;;;5084914;28;20210;-76
2022/07/10 12:29:19;;;;;;;5.17;1.80;;;22.70;1.00;;;;;;5090423;28;20263;-78
2022/07/10 12:31:47;;;;;;;5.50;1.80;;;22.70;1.00;;;;;;5078621;28;20182;-77
2022/07/10 12:34:14;;;;;;;3.23;1.77;;;22.60;1.00;;;;;;5080834;28;20178;-76
2022/07/10 12:36:51;;;;;;;3.27;1.93;;;22.70;1.00;;;;;;5073102;28;20733;-76
2022/07/10 12:39:22;;;;;;;5.13;1.73;;;22.90;1.00;;;;;;5085417;28;20689;-76
2022/07/10 12:42:00;;;;;;;3.97;1.70;;;22.80;1.00;;;;;;5085980;28;20162;-77
2022/07/10 12:44:32;;;;;;;4.87;2.07;;;22.60;1.00;;;;;;5081876;28;20172;-76
2022/07/10 12:47:08;;;;;;;2.80;1.60;;;22.60;1.00;;;;;;5088007;28;20166;-78
2022/07/10 12:50:05;;;;;;;3.23;1.90;;;22.50;1.00;;;;;;5079043;28;20538;-76
2022/07/10 12:52:36;;;;;;;3.80;2.07;;;22.70;1.00;;;;;;5084019;28;20213;-77
2022/07/10 12:55:09;;;;;;;3.27;1.53;;;23.00;1.00;;;;;;5080790;28;20180;-76
2022/07/10 12:57:45;;;;;;;4.77;1.50;;;23.00;1.00;;;;;;5077149;28;20194;-78
2022/07/10 13:00:13;;;;;;;3.97;1.77;;;23.10;1.00;;;;;;5075469;28;20217;-78
2022/07/10 13:02:39;;;;;;;3.90;1.80;;;23.20;1.00;;;;;;5079212;28;20293;-77
2022/07/10 13:05:05;;;;;;;3.63;1.50;;;23.10;1.00;;;;;;5080046;28;20681;-76
2022/07/10 13:07:36;;;;;;;3.33;1.83;;;22.80;1.00;;;;;;5087197;28;20663;-75
2022/07/10 13:10:05;;;;;;;2.37;1.30;;;22.90;1.00;;;;;;5090701;28;20173;-77
2022/07/10 13:12:32;;;;;;;4.97;1.33;;;22.90;1.00;;;;;;5081353;28;20186;-77
2022/07/10 13:14:58;;;;;;;4.23;1.60;;;22.80;1.00;;;;;;5074093;28;20540;-76
2022/07/10 13:17:23;;;;;;;3.33;2.27;;;22.90;1.00;;;;;;5082765;28;20195;-77